sensor_id;sensor_type;location;lat;lon;timestamp;temperature;humidity
16347;DHT22;8283;48.504;13.734;2023-05-10T00:01:02;17.60;48.90
16347;DHT22;8283;48.504;13.734;2023-05-10T00:03:47;17.50;48.90
16347;DHT22;8283;48.504;13.734;2023-05-10T00:06:32;17.40;49.00
16347;DHT22;8283;48.504;13.734;2023-05-10T00:09:16;17.50;49.00
16347;DHT22;8283;48.504;13.734;2023-05-10T00:12:01;17.60;49.20
16347;DHT22;8283;48.504;13.734;2023-05-10T00:14:46;17.30;49.10
16347;DHT22;8283;48.504;13.734;2023-05-10T00:17:31;17.50;49.50
16347;DHT22;8283;48.504;13.734;2023-05-10T00:20:15;17.40;49.40
16347;DHT22;8283;48.504;13.734;2023-05-10T00:22:59;17.30;49.60
16347;DHT22;8283;48.504;13.734;2023-05-10T00:25:44;17.20;49.60
16347;DHT22;8283;48.504;13.734;2023-05-10T00:28:28;17.30;49.90
16347;DHT22;8283;48.504;13.734;2023-05-10T00:31:14;17.10;49.80
16347;DHT22;8283;48.504;13.734;2023-05-10T00:33:59;17.00;50.40
16347;DHT22;8283;48.504;13.734;2023-05-10T00:36:43;17.20;49.90
16347;DHT22;8283;48.504;13.734;2023-05-10T00:39:27;17.00;50.00
16347;DHT22;8283;48.504;13.734;2023-05-10T00:42:12;17.00;50.40
16347;DHT22;8283;48.504;13.734;2023-05-10T00:44:57;17.00;51.40
16347;DHT22;8283;48.504;13.734;2023-05-10T00:47:41;17.00;51.20
16347;DHT22;8283;48.504;13.734;2023-05-10T00:50:26;17.00;51.20
16347;DHT22;8283;48.504;13.734;2023-05-10T00:53:11;16.90;50.80
16347;DHT22;8283;48.504;13.734;2023-05-10T00:55:58;16.80;51.00
16347;DHT22;8283;48.504;13.734;2023-05-10T00:58:44;16.90;51.60
16347;DHT22;8283;48.504;13.734;2023-05-10T01:01:29;16.70;50.90
16347;DHT22;8283;48.504;13.734;2023-05-10T01:04:15;17.00;51.30
16347;DHT22;8283;48.504;13.734;2023-05-10T01:06:59;16.90;51.10
16347;DHT22;8283;48.504;13.734;2023-05-10T01:09:45;16.80;51.00
16347;DHT22;8283;48.504;13.734;2023-05-10T01:12:29;16.80;51.10
16347;DHT22;8283;48.504;13.734;2023-05-10T01:15:15;16.80;51.10
16347;DHT22;8283;48.504;13.734;2023-05-10T01:18:00;16.70;51.30
16347;DHT22;8283;48.504;13.734;2023-05-10T01:20:48;16.70;51.10
16347;DHT22;8283;48.504;13.734;2023-05-10T01:24:25;16.70;51.40
16347;DHT22;8283;48.504;13.734;2023-05-10T01:27:12;16.70;51.80
16347;DHT22;8283;48.504;13.734;2023-05-10T01:30:08;16.70;52.00
16347;DHT22;8283;48.504;13.734;2023-05-10T01:33:26;16.70;52.00
16347;DHT22;8283;48.504;13.734;2023-05-10T01:36:16;16.70;52.70
16347;DHT22;8283;48.504;13.734;2023-05-10T01:39:17;16.70;51.30
16347;DHT22;8283;48.504;13.734;2023-05-10T01:42:10;16.60;51.90
16347;DHT22;8283;48.504;13.734;2023-05-10T01:48:08;16.60;52.40
16347;DHT22;8283;48.504;13.734;2023-05-10T01:50:53;16.60;52.50
16347;DHT22;8283;48.504;13.734;2023-05-10T01:53:39;16.50;51.90
16347;DHT22;8283;48.504;13.734;2023-05-10T01:56:26;16.50;51.40
16347;DHT22;8283;48.504;13.734;2023-05-10T01:59:15;16.50;51.70
16347;DHT22;8283;48.504;13.734;2023-05-10T02:02:01;16.50;52.20
16347;DHT22;8283;48.504;13.734;2023-05-10T02:04:47;16.40;51.50
16347;DHT22;8283;48.504;13.734;2023-05-10T02:07:39;16.50;51.80
16347;DHT22;8283;48.504;13.734;2023-05-10T02:10:25;16.30;52.50
16347;DHT22;8283;48.504;13.734;2023-05-10T02:13:11;16.50;51.90
16347;DHT22;8283;48.504;13.734;2023-05-10T02:15:59;16.40;52.00
16347;DHT22;8283;48.504;13.734;2023-05-10T02:18:44;16.30;52.10
16347;DHT22;8283;48.504;13.734;2023-05-10T02:21:30;16.30;52.00
16347;DHT22;8283;48.504;13.734;2023-05-10T02:24:17;16.20;52.00
16347;DHT22;8283;48.504;13.734;2023-05-10T02:27:03;16.30;52.20
16347;DHT22;8283;48.504;13.734;2023-05-10T02:29:50;16.20;52.20
16347;DHT22;8283;48.504;13.734;2023-05-10T02:32:35;16.30;52.40
16347;DHT22;8283;48.504;13.734;2023-05-10T02:35:21;16.40;52.40
16347;DHT22;8283;48.504;13.734;2023-05-10T02:38:07;16.10;52.30
16347;DHT22;8283;48.504;13.734;2023-05-10T02:40:54;16.10;52.50
16347;DHT22;8283;48.504;13.734;2023-05-10T02:43:40;16.20;52.70
16347;DHT22;8283;48.504;13.734;2023-05-10T02:46:25;16.10;52.70
16347;DHT22;8283;48.504;13.734;2023-05-10T02:49:10;16.10;52.70
16347;DHT22;8283;48.504;13.734;2023-05-10T02:52:00;16.30;53.00
16347;DHT22;8283;48.504;13.734;2023-05-10T02:54:54;16.10;53.60
16347;DHT22;8283;48.504;13.734;2023-05-10T02:57:55;16.10;53.70
16347;DHT22;8283;48.504;13.734;2023-05-10T03:00:41;16.10;53.30
16347;DHT22;8283;48.504;13.734;2023-05-10T03:03:26;16.20;53.10
16347;DHT22;8283;48.504;13.734;2023-05-10T03:06:10;16.10;53.20
16347;DHT22;8283;48.504;13.734;2023-05-10T03:08:55;16.10;53.30
16347;DHT22;8283;48.504;13.734;2023-05-10T03:17:47;16.20;54.20
16347;DHT22;8283;48.504;13.734;2023-05-10T03:20:55;16.10;54.10
16347;DHT22;8283;48.504;13.734;2023-05-10T03:23:50;16.10;54.60
16347;DHT22;8283;48.504;13.734;2023-05-10T03:26:36;16.10;54.60
16347;DHT22;8283;48.504;13.734;2023-05-10T03:29:30;16.30;53.80
16347;DHT22;8283;48.504;13.734;2023-05-10T03:32:15;16.10;53.70
16347;DHT22;8283;48.504;13.734;2023-05-10T03:35:00;16.10;53.70
16347;DHT22;8283;48.504;13.734;2023-05-10T03:37:46;16.40;53.90
16347;DHT22;8283;48.504;13.734;2023-05-10T03:40:32;16.20;53.90
16347;DHT22;8283;48.504;13.734;2023-05-10T03:43:18;16.20;54.10
16347;DHT22;8283;48.504;13.734;2023-05-10T03:46:03;16.20;54.20
16347;DHT22;8283;48.504;13.734;2023-05-10T03:48:48;16.30;54.20
16347;DHT22;8283;48.504;13.734;2023-05-10T03:51:33;16.30;54.10
16347;DHT22;8283;48.504;13.734;2023-05-10T03:54:17;16.50;54.30
16347;DHT22;8283;48.504;13.734;2023-05-10T03:57:02;16.30;54.20
16347;DHT22;8283;48.504;13.734;2023-05-10T03:59:48;16.30;54.30
16347;DHT22;8283;48.504;13.734;2023-05-10T04:02:32;16.50;54.50
16347;DHT22;8283;48.504;13.734;2023-05-10T04:05:18;16.40;54.40
16347;DHT22;8283;48.504;13.734;2023-05-10T04:08:05;16.50;54.50
16347;DHT22;8283;48.504;13.734;2023-05-10T04:10:51;16.60;54.70
16347;DHT22;8283;48.504;13.734;2023-05-10T04:13:40;16.60;54.50
16347;DHT22;8283;48.504;13.734;2023-05-10T04:16:25;16.60;54.90
16347;DHT22;8283;48.504;13.734;2023-05-10T04:19:10;16.70;54.50
16347;DHT22;8283;48.504;13.734;2023-05-10T04:21:55;16.80;54.50
16347;DHT22;8283;48.504;13.734;2023-05-10T04:24:40;16.70;54.30
16347;DHT22;8283;48.504;13.734;2023-05-10T04:27:26;16.80;54.30
16347;DHT22;8283;48.504;13.734;2023-05-10T04:30:11;16.90;54.60
16347;DHT22;8283;48.504;13.734;2023-05-10T04:32:56;16.70;54.30
16347;DHT22;8283;48.504;13.734;2023-05-10T04:35:44;16.70;54.20
16347;DHT22;8283;48.504;13.734;2023-05-10T04:38:29;16.70;54.60
16347;DHT22;8283;48.504;13.734;2023-05-10T04:41:14;16.80;54.40
16347;DHT22;8283;48.504;13.734;2023-05-10T04:43:59;16.90;54.50
16347;DHT22;8283;48.504;13.734;2023-05-10T04:46:43;16.90;54.50
16347;DHT22;8283;48.504;13.734;2023-05-10T04:49:28;16.80;54.50
16347;DHT22;8283;48.504;13.734;2023-05-10T04:52:13;16.80;54.70
16347;DHT22;8283;48.504;13.734;2023-05-10T04:54:59;16.90;54.70
16347;DHT22;8283;48.504;13.734;2023-05-10T04:57:44;17.00;55.00
16347;DHT22;8283;48.504;13.734;2023-05-10T05:00:29;16.90;54.90
16347;DHT22;8283;48.504;13.734;2023-05-10T05:03:14;17.00;54.90
16347;DHT22;8283;48.504;13.734;2023-05-10T05:06:00;17.00;54.90
16347;DHT22;8283;48.504;13.734;2023-05-10T05:08:47;17.00;55.10
16347;DHT22;8283;48.504;13.734;2023-05-10T05:11:33;17.00;55.10
16347;DHT22;8283;48.504;13.734;2023-05-10T05:14:18;17.10;55.00
16347;DHT22;8283;48.504;13.734;2023-05-10T05:17:06;17.20;55.00
16347;DHT22;8283;48.504;13.734;2023-05-10T05:19:52;17.40;55.10
16347;DHT22;8283;48.504;13.734;2023-05-10T05:22:37;17.20;54.90
16347;DHT22;8283;48.504;13.734;2023-05-10T05:25:22;17.20;54.90
16347;DHT22;8283;48.504;13.734;2023-05-10T05:28:07;17.20;54.80
16347;DHT22;8283;48.504;13.734;2023-05-10T05:30:52;17.20;54.90
16347;DHT22;8283;48.504;13.734;2023-05-10T05:33:37;17.30;55.00
16347;DHT22;8283;48.504;13.734;2023-05-10T05:36:23;17.30;55.00
16347;DHT22;8283;48.504;13.734;2023-05-10T05:39:08;17.30;54.90
16347;DHT22;8283;48.504;13.734;2023-05-10T05:41:52;17.40;55.10
16347;DHT22;8283;48.504;13.734;2023-05-10T05:44:37;17.30;55.00
16347;DHT22;8283;48.504;13.734;2023-05-10T05:47:22;17.50;55.10
16347;DHT22;8283;48.504;13.734;2023-05-10T05:50:07;17.40;55.10
16347;DHT22;8283;48.504;13.734;2023-05-10T05:52:53;17.40;55.10
16347;DHT22;8283;48.504;13.734;2023-05-10T05:55:37;17.50;55.10
16347;DHT22;8283;48.504;13.734;2023-05-10T05:58:22;17.40;55.10
16347;DHT22;8283;48.504;13.734;2023-05-10T06:01:07;17.50;55.30
16347;DHT22;8283;48.504;13.734;2023-05-10T06:03:51;17.50;55.40
16347;DHT22;8283;48.504;13.734;2023-05-10T06:06:35;17.60;55.20
16347;DHT22;8283;48.504;13.734;2023-05-10T06:09:20;17.60;55.20
16347;DHT22;8283;48.504;13.734;2023-05-10T06:12:05;17.60;55.10
16347;DHT22;8283;48.504;13.734;2023-05-10T06:14:49;17.60;55.10
16347;DHT22;8283;48.504;13.734;2023-05-10T06:17:39;17.70;55.10
16347;DHT22;8283;48.504;13.734;2023-05-10T06:20:24;17.60;55.40
16347;DHT22;8283;48.504;13.734;2023-05-10T06:23:09;17.70;55.10
16347;DHT22;8283;48.504;13.734;2023-05-10T06:25:55;17.70;55.20
16347;DHT22;8283;48.504;13.734;2023-05-10T06:28:39;17.80;55.50
16347;DHT22;8283;48.504;13.734;2023-05-10T06:31:24;17.70;55.30
16347;DHT22;8283;48.504;13.734;2023-05-10T06:34:08;17.90;55.50
16347;DHT22;8283;48.504;13.734;2023-05-10T06:36:53;18.00;55.60
16347;DHT22;8283;48.504;13.734;2023-05-10T06:39:38;18.00;55.40
16347;DHT22;8283;48.504;13.734;2023-05-10T06:42:23;18.00;55.40
16347;DHT22;8283;48.504;13.734;2023-05-10T06:45:10;18.10;55.50
16347;DHT22;8283;48.504;13.734;2023-05-10T06:47:54;18.10;55.60
16347;DHT22;8283;48.504;13.734;2023-05-10T06:50:39;18.10;55.70
16347;DHT22;8283;48.504;13.734;2023-05-10T06:53:25;18.30;55.70
16347;DHT22;8283;48.504;13.734;2023-05-10T06:56:09;18.30;55.70
16347;DHT22;8283;48.504;13.734;2023-05-10T06:58:54;18.40;55.70
16347;DHT22;8283;48.504;13.734;2023-05-10T07:01:39;18.40;55.80
16347;DHT22;8283;48.504;13.734;2023-05-10T07:04:23;18.50;55.80
16347;DHT22;8283;48.504;13.734;2023-05-10T07:07:07;18.50;55.90
16347;DHT22;8283;48.504;13.734;2023-05-10T07:09:52;18.50;55.90
16347;DHT22;8283;48.504;13.734;2023-05-10T07:12:39;18.50;55.70
16347;DHT22;8283;48.504;13.734;2023-05-10T07:15:24;18.60;55.90
16347;DHT22;8283;48.504;13.734;2023-05-10T07:18:09;18.70;55.70
16347;DHT22;8283;48.504;13.734;2023-05-10T07:20:57;18.70;55.70
16347;DHT22;8283;48.504;13.734;2023-05-10T07:23:41;18.80;56.00
16347;DHT22;8283;48.504;13.734;2023-05-10T07:26:37;18.80;55.60
16347;DHT22;8283;48.504;13.734;2023-05-10T07:29:22;18.80;55.70
16347;DHT22;8283;48.504;13.734;2023-05-10T07:32:06;18.90;56.10
16347;DHT22;8283;48.504;13.734;2023-05-10T07:34:52;18.80;56.00
16347;DHT22;8283;48.504;13.734;2023-05-10T07:37:36;18.80;56.10
16347;DHT22;8283;48.504;13.734;2023-05-10T07:40:21;18.90;56.00
16347;DHT22;8283;48.504;13.734;2023-05-10T07:43:05;18.90;56.10
16347;DHT22;8283;48.504;13.734;2023-05-10T07:45:52;19.00;56.20
16347;DHT22;8283;48.504;13.734;2023-05-10T07:48:38;19.00;56.60
16347;DHT22;8283;48.504;13.734;2023-05-10T07:51:23;19.00;56.60
16347;DHT22;8283;48.504;13.734;2023-05-10T07:54:08;19.10;56.50
16347;DHT22;8283;48.504;13.734;2023-05-10T07:56:53;19.00;56.50
16347;DHT22;8283;48.504;13.734;2023-05-10T07:59:40;19.10;56.50
16347;DHT22;8283;48.504;13.734;2023-05-10T08:02:25;19.10;56.70
16347;DHT22;8283;48.504;13.734;2023-05-10T08:05:09;19.20;56.40
16347;DHT22;8283;48.504;13.734;2023-05-10T08:07:55;19.30;56.20
16347;DHT22;8283;48.504;13.734;2023-05-10T08:10:40;19.20;56.00
16347;DHT22;8283;48.504;13.734;2023-05-10T08:13:24;19.30;55.90
16347;DHT22;8283;48.504;13.734;2023-05-10T08:16:09;19.20;55.90
16347;DHT22;8283;48.504;13.734;2023-05-10T08:18:53;19.20;56.10
16347;DHT22;8283;48.504;13.734;2023-05-10T08:21:39;19.30;56.20
16347;DHT22;8283;48.504;13.734;2023-05-10T08:24:26;19.10;56.30
16347;DHT22;8283;48.504;13.734;2023-05-10T08:27:10;19.10;56.60
16347;DHT22;8283;48.504;13.734;2023-05-10T08:29:56;19.40;56.90
16347;DHT22;8283;48.504;13.734;2023-05-10T08:32:40;19.20;57.00
16347;DHT22;8283;48.504;13.734;2023-05-10T08:35:25;19.30;56.90
16347;DHT22;8283;48.504;13.734;2023-05-10T08:38:10;19.50;56.90
16347;DHT22;8283;48.504;13.734;2023-05-10T08:40:55;19.50;56.70
16347;DHT22;8283;48.504;13.734;2023-05-10T08:43:43;19.50;56.70
16347;DHT22;8283;48.504;13.734;2023-05-10T08:46:33;19.50;56.70
16347;DHT22;8283;48.504;13.734;2023-05-10T08:49:25;19.50;56.90
16347;DHT22;8283;48.504;13.734;2023-05-10T08:52:15;19.60;56.70
16347;DHT22;8283;48.504;13.734;2023-05-10T08:55:01;19.70;56.70
16347;DHT22;8283;48.504;13.734;2023-05-10T08:57:47;19.60;56.50
16347;DHT22;8283;48.504;13.734;2023-05-10T09:00:32;19.60;56.50
16347;DHT22;8283;48.504;13.734;2023-05-10T09:03:19;19.60;56.40
16347;DHT22;8283;48.504;13.734;2023-05-10T09:06:04;19.60;56.70
16347;DHT22;8283;48.504;13.734;2023-05-10T09:08:50;19.70;56.60
16347;DHT22;8283;48.504;13.734;2023-05-10T09:11:38;19.70;56.60
16347;DHT22;8283;48.504;13.734;2023-05-10T09:14:24;19.80;56.60
16347;DHT22;8283;48.504;13.734;2023-05-10T09:17:12;19.80;56.60
16347;DHT22;8283;48.504;13.734;2023-05-10T09:20:00;19.80;56.60
16347;DHT22;8283;48.504;13.734;2023-05-10T09:22:44;19.70;56.60
16347;DHT22;8283;48.504;13.734;2023-05-10T09:25:33;19.70;56.50
16347;DHT22;8283;48.504;13.734;2023-05-10T09:28:18;19.70;56.70
16347;DHT22;8283;48.504;13.734;2023-05-10T09:31:03;19.60;56.50
16347;DHT22;8283;48.504;13.734;2023-05-10T09:33:49;19.60;56.70
16347;DHT22;8283;48.504;13.734;2023-05-10T09:36:36;19.70;56.90
16347;DHT22;8283;48.504;13.734;2023-05-10T09:39:20;19.70;57.00
16347;DHT22;8283;48.504;13.734;2023-05-10T09:42:08;19.70;56.80
16347;DHT22;8283;48.504;13.734;2023-05-10T09:44:52;19.80;56.80
16347;DHT22;8283;48.504;13.734;2023-05-10T09:47:38;19.70;56.50
16347;DHT22;8283;48.504;13.734;2023-05-10T09:50:24;19.70;56.60
16347;DHT22;8283;48.504;13.734;2023-05-10T09:53:09;19.60;56.70
16347;DHT22;8283;48.504;13.734;2023-05-10T09:55:53;19.60;56.60
16347;DHT22;8283;48.504;13.734;2023-05-10T09:58:39;19.40;56.60
16347;DHT22;8283;48.504;13.734;2023-05-10T10:01:26;19.40;57.00
16347;DHT22;8283;48.504;13.734;2023-05-10T10:04:10;19.20;57.40
16347;DHT22;8283;48.504;13.734;2023-05-10T10:07:03;19.20;57.30
16347;DHT22;8283;48.504;13.734;2023-05-10T10:09:49;19.20;58.30
16347;DHT22;8283;48.504;13.734;2023-05-10T10:12:34;19.20;57.80
16347;DHT22;8283;48.504;13.734;2023-05-10T10:15:20;19.20;57.80
16347;DHT22;8283;48.504;13.734;2023-05-10T10:18:05;19.20;57.90
16347;DHT22;8283;48.504;13.734;2023-05-10T10:20:50;19.20;57.80
16347;DHT22;8283;48.504;13.734;2023-05-10T10:23:35;19.20;58.10
16347;DHT22;8283;48.504;13.734;2023-05-10T10:26:20;19.20;58.30
16347;DHT22;8283;48.504;13.734;2023-05-10T10:29:23;19.20;58.70
16347;DHT22;8283;48.504;13.734;2023-05-10T10:32:19;19.30;60.00
16347;DHT22;8283;48.504;13.734;2023-05-10T10:35:11;19.40;59.20
16347;DHT22;8283;48.504;13.734;2023-05-10T10:37:56;19.50;59.70
16347;DHT22;8283;48.504;13.734;2023-05-10T10:40:40;19.60;59.00
16347;DHT22;8283;48.504;13.734;2023-05-10T10:43:27;19.70;59.20
16347;DHT22;8283;48.504;13.734;2023-05-10T10:46:16;19.80;59.50
16347;DHT22;8283;48.504;13.734;2023-05-10T10:49:10;19.90;59.60
16347;DHT22;8283;48.504;13.734;2023-05-10T10:55:18;20.30;60.50
16347;DHT22;8283;48.504;13.734;2023-05-10T10:58:03;20.40;59.70
16347;DHT22;8283;48.504;13.734;2023-05-10T11:00:49;20.50;59.10
16347;DHT22;8283;48.504;13.734;2023-05-10T11:03:33;20.50;58.80
16347;DHT22;8283;48.504;13.734;2023-05-10T11:06:29;20.50;58.70
16347;DHT22;8283;48.504;13.734;2023-05-10T11:09:15;20.70;59.20
16347;DHT22;8283;48.504;13.734;2023-05-10T11:12:07;20.80;58.50
16347;DHT22;8283;48.504;13.734;2023-05-10T11:14:57;20.70;58.30
16347;DHT22;8283;48.504;13.734;2023-05-10T11:17:42;20.60;58.60
16347;DHT22;8283;48.504;13.734;2023-05-10T11:20:39;20.60;58.20
16347;DHT22;8283;48.504;13.734;2023-05-10T11:23:28;20.60;59.20
16347;DHT22;8283;48.504;13.734;2023-05-10T11:26:16;20.50;58.10
16347;DHT22;8283;48.504;13.734;2023-05-10T11:29:02;20.50;58.50
16347;DHT22;8283;48.504;13.734;2023-05-10T11:31:50;20.50;58.30
16347;DHT22;8283;48.504;13.734;2023-05-10T11:34:34;20.30;58.30
16347;DHT22;8283;48.504;13.734;2023-05-10T11:37:18;20.40;58.50
16347;DHT22;8283;48.504;13.734;2023-05-10T11:40:03;20.30;58.80
16347;DHT22;8283;48.504;13.734;2023-05-10T11:42:48;20.30;58.90
16347;DHT22;8283;48.504;13.734;2023-05-10T11:45:33;20.30;58.90
16347;DHT22;8283;48.504;13.734;2023-05-10T11:48:22;20.50;59.20
16347;DHT22;8283;48.504;13.734;2023-05-10T11:51:09;20.40;59.70
16347;DHT22;8283;48.504;13.734;2023-05-10T11:53:55;20.50;59.50
16347;DHT22;8283;48.504;13.734;2023-05-10T11:56:40;20.60;60.00
16347;DHT22;8283;48.504;13.734;2023-05-10T11:59:26;20.70;60.00
16347;DHT22;8283;48.504;13.734;2023-05-10T12:02:11;20.80;60.30
16347;DHT22;8283;48.504;13.734;2023-05-10T12:04:56;20.90;60.60
16347;DHT22;8283;48.504;13.734;2023-05-10T12:07:40;21.20;60.90
16347;DHT22;8283;48.504;13.734;2023-05-10T12:10:26;21.30;60.90
16347;DHT22;8283;48.504;13.734;2023-05-10T12:13:12;21.70;61.00
16347;DHT22;8283;48.504;13.734;2023-05-10T12:15:58;21.80;60.60
16347;DHT22;8283;48.504;13.734;2023-05-10T12:18:45;22.00;60.40
16347;DHT22;8283;48.504;13.734;2023-05-10T12:21:29;22.00;60.20
16347;DHT22;8283;48.504;13.734;2023-05-10T12:24:17;22.30;59.80
16347;DHT22;8283;48.504;13.734;2023-05-10T12:27:05;22.40;59.60
16347;DHT22;8283;48.504;13.734;2023-05-10T12:29:53;22.50;59.30
16347;DHT22;8283;48.504;13.734;2023-05-10T12:32:43;22.60;59.20
16347;DHT22;8283;48.504;13.734;2023-05-10T12:35:31;22.60;59.00
16347;DHT22;8283;48.504;13.734;2023-05-10T12:38:33;22.60;59.00
16347;DHT22;8283;48.504;13.734;2023-05-10T12:41:18;22.70;59.20
16347;DHT22;8283;48.504;13.734;2023-05-10T12:44:02;22.70;58.80
16347;DHT22;8283;48.504;13.734;2023-05-10T12:46:50;22.90;59.00
16347;DHT22;8283;48.504;13.734;2023-05-10T12:49:35;22.80;59.00
16347;DHT22;8283;48.504;13.734;2023-05-10T12:52:19;22.90;59.00
16347;DHT22;8283;48.504;13.734;2023-05-10T12:55:04;23.10;59.20
16347;DHT22;8283;48.504;13.734;2023-05-10T12:57:49;23.20;59.40
16347;DHT22;8283;48.504;13.734;2023-05-10T13:00:34;23.30;59.60
16347;DHT22;8283;48.504;13.734;2023-05-10T13:03:20;23.40;59.50
16347;DHT22;8283;48.504;13.734;2023-05-10T13:06:05;23.60;59.50
16347;DHT22;8283;48.504;13.734;2023-05-10T13:08:50;23.80;59.60
16347;DHT22;8283;48.504;13.734;2023-05-10T13:11:36;24.00;59.40
16347;DHT22;8283;48.504;13.734;2023-05-10T13:14:21;24.10;59.30
16347;DHT22;8283;48.504;13.734;2023-05-10T13:17:05;24.30;59.20
16347;DHT22;8283;48.504;13.734;2023-05-10T13:19:51;24.50;59.00
16347;DHT22;8283;48.504;13.734;2023-05-10T13:22:36;24.80;58.90
16347;DHT22;8283;48.504;13.734;2023-05-10T13:25:20;24.90;58.60
16347;DHT22;8283;48.504;13.734;2023-05-10T13:28:05;25.10;58.50
16347;DHT22;8283;48.504;13.734;2023-05-10T13:30:49;25.20;58.30
16347;DHT22;8283;48.504;13.734;2023-05-10T13:33:34;25.40;58.70
16347;DHT22;8283;48.504;13.734;2023-05-10T13:36:20;25.50;57.80
16347;DHT22;8283;48.504;13.734;2023-05-10T13:39:04;25.60;57.60
16347;DHT22;8283;48.504;13.734;2023-05-10T13:41:49;25.80;57.50
16347;DHT22;8283;48.504;13.734;2023-05-10T13:44:34;25.90;57.20
16347;DHT22;8283;48.504;13.734;2023-05-10T13:47:19;26.00;56.90
16347;DHT22;8283;48.504;13.734;2023-05-10T13:50:06;26.00;56.70
16347;DHT22;8283;48.504;13.734;2023-05-10T13:52:51;26.10;56.40
16347;DHT22;8283;48.504;13.734;2023-05-10T13:55:36;26.10;56.20
16347;DHT22;8283;48.504;13.734;2023-05-10T13:58:21;26.10;56.10
16347;DHT22;8283;48.504;13.734;2023-05-10T14:01:06;26.20;56.10
16347;DHT22;8283;48.504;13.734;2023-05-10T14:03:50;26.20;56.60
16347;DHT22;8283;48.504;13.734;2023-05-10T14:06:36;26.30;55.90
16347;DHT22;8283;48.504;13.734;2023-05-10T14:09:20;26.30;55.70
16347;DHT22;8283;48.504;13.734;2023-05-10T14:12:05;26.30;55.70
16347;DHT22;8283;48.504;13.734;2023-05-10T14:14:49;26.30;55.60
16347;DHT22;8283;48.504;13.734;2023-05-10T14:17:34;26.30;55.50
16347;DHT22;8283;48.504;13.734;2023-05-10T14:20:19;26.30;55.40
16347;DHT22;8283;48.504;13.734;2023-05-10T14:23:05;26.30;55.10
16347;DHT22;8283;48.504;13.734;2023-05-10T14:25:52;26.30;55.00
16347;DHT22;8283;48.504;13.734;2023-05-10T14:28:38;26.30;54.90
16347;DHT22;8283;48.504;13.734;2023-05-10T14:31:23;26.20;54.80
16347;DHT22;8283;48.504;13.734;2023-05-10T14:34:10;26.20;54.70
16347;DHT22;8283;48.504;13.734;2023-05-10T14:36:55;26.10;54.50
16347;DHT22;8283;48.504;13.734;2023-05-10T14:39:41;26.00;54.30
16347;DHT22;8283;48.504;13.734;2023-05-10T14:42:28;26.00;54.50
16347;DHT22;8283;48.504;13.734;2023-05-10T14:45:13;25.80;54.40
16347;DHT22;8283;48.504;13.734;2023-05-10T14:47:58;25.80;54.30
16347;DHT22;8283;48.504;13.734;2023-05-10T14:50:44;25.60;54.10
16347;DHT22;8283;48.504;13.734;2023-05-10T14:53:30;25.50;54.00
16347;DHT22;8283;48.504;13.734;2023-05-10T14:56:19;25.30;53.80
16347;DHT22;8283;48.504;13.734;2023-05-10T14:59:04;25.10;54.00
16347;DHT22;8283;48.504;13.734;2023-05-10T15:02:02;24.90;53.80
16347;DHT22;8283;48.504;13.734;2023-05-10T15:04:47;24.70;54.70
16347;DHT22;8283;48.504;13.734;2023-05-10T15:07:32;24.50;54.30
16347;DHT22;8283;48.504;13.734;2023-05-10T15:10:18;24.30;54.40
16347;DHT22;8283;48.504;13.734;2023-05-10T15:13:04;24.20;54.80
16347;DHT22;8283;48.504;13.734;2023-05-10T15:15:50;24.00;54.60
16347;DHT22;8283;48.504;13.734;2023-05-10T15:18:36;23.80;54.90
16347;DHT22;8283;48.504;13.734;2023-05-10T15:21:21;23.70;55.00
16347;DHT22;8283;48.504;13.734;2023-05-10T15:24:06;23.50;55.10
16347;DHT22;8283;48.504;13.734;2023-05-10T15:26:50;23.40;55.20
16347;DHT22;8283;48.504;13.734;2023-05-10T15:29:34;23.20;55.30
16347;DHT22;8283;48.504;13.734;2023-05-10T15:32:20;23.10;56.00
16347;DHT22;8283;48.504;13.734;2023-05-10T15:35:12;22.90;55.60
16347;DHT22;8283;48.504;13.734;2023-05-10T15:38:01;22.80;56.60
16347;DHT22;8283;48.504;13.734;2023-05-10T15:40:48;22.70;56.60
16347;DHT22;8283;48.504;13.734;2023-05-10T15:43:34;22.60;56.50
16347;DHT22;8283;48.504;13.734;2023-05-10T15:46:19;22.60;56.50
16347;DHT22;8283;48.504;13.734;2023-05-10T15:49:04;22.50;56.50
16347;DHT22;8283;48.504;13.734;2023-05-10T15:51:52;22.30;56.40
16347;DHT22;8283;48.504;13.734;2023-05-10T15:54:38;22.30;57.10
16347;DHT22;8283;48.504;13.734;2023-05-10T15:57:25;22.00;56.90
16347;DHT22;8283;48.504;13.734;2023-05-10T16:00:11;22.00;57.70
16347;DHT22;8283;48.504;13.734;2023-05-10T16:03:01;22.00;57.20
16347;DHT22;8283;48.504;13.734;2023-05-10T16:05:45;21.90;57.50
16347;DHT22;8283;48.504;13.734;2023-05-10T16:08:29;21.80;57.30
16347;DHT22;8283;48.504;13.734;2023-05-10T16:11:16;21.80;57.60
16347;DHT22;8283;48.504;13.734;2023-05-10T16:14:00;21.80;57.60
16347;DHT22;8283;48.504;13.734;2023-05-10T16:16:45;21.70;57.60
16347;DHT22;8283;48.504;13.734;2023-05-10T16:19:29;21.60;57.80
16347;DHT22;8283;48.504;13.734;2023-05-10T16:22:16;21.70;58.00
16347;DHT22;8283;48.504;13.734;2023-05-10T16:25:05;21.60;58.40
16347;DHT22;8283;48.504;13.734;2023-05-10T16:27:51;21.60;58.80
16347;DHT22;8283;48.504;13.734;2023-05-10T16:30:35;21.50;58.30
16347;DHT22;8283;48.504;13.734;2023-05-10T16:33:20;21.50;58.30
16347;DHT22;8283;48.504;13.734;2023-05-10T16:36:05;21.50;58.30
16347;DHT22;8283;48.504;13.734;2023-05-10T16:38:49;21.40;58.30
16347;DHT22;8283;48.504;13.734;2023-05-10T16:41:34;21.50;58.50
16347;DHT22;8283;48.504;13.734;2023-05-10T16:44:18;21.40;58.60
16347;DHT22;8283;48.504;13.734;2023-05-10T16:47:04;21.30;58.60
16347;DHT22;8283;48.504;13.734;2023-05-10T16:49:48;21.40;58.90
16347;DHT22;8283;48.504;13.734;2023-05-10T16:52:34;21.30;59.00
16347;DHT22;8283;48.504;13.734;2023-05-10T16:55:19;21.30;59.30
16347;DHT22;8283;48.504;13.734;2023-05-10T16:58:05;21.30;59.20
16347;DHT22;8283;48.504;13.734;2023-05-10T17:00:53;21.30;59.20
16347;DHT22;8283;48.504;13.734;2023-05-10T17:03:38;21.40;59.90
16347;DHT22;8283;48.504;13.734;2023-05-10T17:06:22;21.30;59.40
16347;DHT22;8283;48.504;13.734;2023-05-10T17:09:06;21.30;59.50
16347;DHT22;8283;48.504;13.734;2023-05-10T17:11:51;21.30;59.60
16347;DHT22;8283;48.504;13.734;2023-05-10T17:14:36;21.40;59.70
16347;DHT22;8283;48.504;13.734;2023-05-10T17:17:21;21.40;59.80
16347;DHT22;8283;48.504;13.734;2023-05-10T17:20:07;21.30;59.60
16347;DHT22;8283;48.504;13.734;2023-05-10T17:22:54;21.40;59.60
16347;DHT22;8283;48.504;13.734;2023-05-10T17:25:42;21.40;59.90
16347;DHT22;8283;48.504;13.734;2023-05-10T17:28:28;21.40;60.10
16347;DHT22;8283;48.504;13.734;2023-05-10T17:31:15;21.40;60.00
16347;DHT22;8283;48.504;13.734;2023-05-10T17:34:01;21.40;60.10
16347;DHT22;8283;48.504;13.734;2023-05-10T17:36:48;21.40;59.90
16347;DHT22;8283;48.504;13.734;2023-05-10T17:39:33;21.40;60.00
16347;DHT22;8283;48.504;13.734;2023-05-10T17:42:19;21.30;59.80